Wray, Georgia
Current Conditions -  °F | °C
As of 9:55 AM on Wednesday 22 Oct 2014 (Local Time) from KFZG Reporting Station
Clear Clear  
Wind Chill: 62°   Ceiling: Unl
Heat Index: 62°   Visibility: 10mi
Dew Point: 47°   Wind: 5mph
Humidity: 59%   Direction: 10°N
Pressure: 30.11"   Gusts: NA
Location:  31.62°N, 83.05°W
Report Text: KFZG 221355Z AUTO 01004KT 10SM CLR 17/09 A3011 RMK AO2 T01660085
Loading
Personal Weather Stations






























Interactive Weather Map
Tropical Storm Tracking
New forecast layout! Learn more

10-Day Weather Forecast

Advertisements
Track Severe Weather on mobile